Drumheller, Canada
Current Conditions -  °F | °C
As of 5:00 PM on Thursday 18 Dec 2014 (Local Time) from CYYC Reporting Station
Broken Clouds Broken Clouds  
Wind Chill: 34°   Ceiling: 28000
Heat Index: 34°   Visibility: 15mi
Dew Point: 23°   Wind: 3mph
Humidity: 65%   Direction: 190°S
Pressure: 29.78"   Gusts: NA
Location:  51.46°N, 112.71°W
Report Text: CYYC 190000Z 19003KT 15SM FEW034 FEW120 BKN280 01/M05 A2978 RMK SC1AC2CI3 SC TR SLP136
Loading
Personal Weather Stations






























Interactive Weather Map New forecast layout! Learn more

10-Day Weather Forecast

Advertisements
Track Severe Weather on mobile